METAR Data
IDs: Format: Raw Decoded Include TAF

Data at: 2238 UTC 25 Oct 2021

KHHF 252235Z AUTO 17012G17KT 10SM CLR 25/08 A2990 RMK AO2 T02510082
KHHF 252215Z AUTO 17015G21KT 10SM CLR 26/08 A2990 RMK AO2 T02550081
KHHF 252200Z AUTO 17013G20KT 10SM CLR 26/08 A2990 RMK AO2 T02560079
KHHF 252135Z AUTO 17012G21KT 10SM CLR 26/08 A2990 RMK AO2 T02560077
KHHF 252115Z AUTO 17015G22KT 10SM CLR 26/08 A2991 RMK AO2 T02550077
KHHF 252055Z AUTO 18014G21KT 10SM CLR 26/08 A2991 RMK AO2 T02560077
KHHF 252040Z AUTO 16012G20KT 10SM CLR 26/08 A2991 RMK AO2 T02550075
KHHF 252015Z AUTO 16014G21KT 10SM CLR 25/08 A2993 RMK AO2 T02460075
KHHF 251955Z AUTO 15012G20KT 10SM CLR 25/08 A2994 RMK AO2 T02520081
KHHF 251935Z AUTO 15010G18KT 10SM CLR 23/08 A2995 RMK AO2 T02320078
KHHF 251915Z AUTO 18014KT 10SM CLR 23/08 A2995 RMK AO2 T02280077
KHHF 251855Z AUTO 16010G19KT 10SM CLR 22/07 A2997 RMK AO2 T02210072
KHHF 251835Z AUTO 16013G19KT 10SM CLR 23/08 A2998 RMK AO2 T02260075
KHHF 251815Z AUTO 16009G18KT 10SM CLR 22/08 A2999 RMK AO2 T02210075
KHHF 251755Z AUTO 14012G15KT 10SM CLR 22/08 A3000 RMK AO2 T02150075 10217 20033
KHHF 251735Z AUTO 16009KT 10SM CLR 21/08 A3001 RMK AO2 T02120080
KHHF 251715Z AUTO 14007KT 10SM CLR 21/08 A3002 RMK AO2 T02060083
KHHF 251655Z AUTO 15010G14KT 10SM CLR 19/08 A3002 RMK AO2 T01930079
KHHF 251635Z AUTO 13011KT 10SM CLR 18/08 A3003 RMK AO2 T01810077
KHHF 251615Z AUTO 12011G14KT 10SM CLR 17/07 A3004 RMK AO2 T01680073
KHHF 251555Z AUTO 12009KT 10SM CLR 16/07 A3004 RMK AO2 T01600070
KHHF 251535Z AUTO 12010KT 10SM CLR 15/07 A3005 RMK AO2 T01540074
KHHF 251515Z AUTO 11010KT 10SM CLR 13/07 A3005 RMK AO2 T01310068
KHHF 251455Z AUTO 12011KT 10SM CLR 12/06 A3005 RMK AO2 T01160061
KHHF 251435Z AUTO 11013G16KT 10SM CLR 11/06 A3005 RMK AO2 T01090058
KHHF 251415Z AUTO 11012KT 10SM CLR 11/06 A3005 RMK AO2 T01070062
KHHF 251355Z AUTO 00000KT 10SM CLR 06/05 A3005 RMK AO2 T00630046
KHHF 251335Z AUTO 00000KT 10SM CLR 05/04 A3004 RMK AO2 T00510038
KHHF 251315Z AUTO 00000KT 10SM CLR 04/03 A3003 RMK AO2 T00400030
KHHF 251255Z AUTO 00000KT 10SM CLR 03/02 A3004 RMK AO2 T00330024
KHHF 251235Z AUTO 00000KT 10SM CLR 04/03 A3003 RMK AO2 T00410028
KHHF 251215Z AUTO 05003KT 10SM CLR 04/03 A3003 RMK AO2 T00440033
KHHF 251200Z AUTO 00000KT 10SM CLR 04/03 A3003 RMK AO2 T00360026
KHHF 251135Z AUTO 22003KT 10SM CLR 05/04 A3002 RMK AO2 T00480037
KHHF 251120Z AUTO 00000KT 10SM CLR 05/04 A3002 RMK AO2 T00470035
KHHF 251055Z AUTO 00000KT 10SM CLR 05/04 A3001 RMK AO2 T00520042
KHHF 251035Z AUTO 00000KT 10SM CLR 04/04 A2999 RMK AO2 T00420035
KHHF 251015Z AUTO 00000KT 10SM CLR 05/04 A2999 RMK AO2 T00500038
KHHF 250955Z AUTO 19003KT 10SM CLR 05/04 A3000 RMK AO2 T00500039
KHHF 250935Z AUTO 00000KT 10SM CLR 05/04 A3000 RMK AO2 T00450035
KHHF 250915Z AUTO 00000KT 10SM CLR 06/04 A3000 RMK AO2 T00610039
KHHF 250855Z AUTO 00000KT 10SM CLR 06/05 A3001 RMK AO2 T00580046
KHHF 250835Z AUTO 00000KT 10SM CLR 06/05 A3000 RMK AO2 T00600045
KHHF 250815Z AUTO 00000KT 10SM CLR 06/04 A3000 RMK AO2 T00600042
KHHF 250755Z AUTO 00000KT 10SM CLR 07/05 A2999 RMK AO2 T00670045
KHHF 250735Z AUTO 23003KT 10SM CLR 07/04 A2999 RMK AO2 T00650043
KHHF 250715Z AUTO 00000KT 10SM CLR 06/04 A2998 RMK AO2 T00610044
KHHF 250655Z AUTO 00000KT 10SM CLR 08/05 A2998 RMK AO2 T00770047
KHHF 250635Z AUTO 22003KT 10SM CLR 08/05 A2998 RMK AO2 T00760048
KHHF 250615Z AUTO 22004KT 10SM CLR 07/05 A2997 RMK AO2 T00700048
KHHF 250555Z AUTO 00000KT 10SM CLR 08/05 A2997 RMK AO2 T00760047 10204 20073 402480073
KHHF 250535Z AUTO 24004KT 10SM CLR 08/05 A2997 RMK AO2 T00790048
KHHF 250515Z AUTO 23004KT 10SM CLR 08/05 A2997 RMK AO2 T00760050
KHHF 250455Z AUTO 00000KT 10SM CLR 08/05 A2996 RMK AO2 T00800049
KHHF 250435Z AUTO 00000KT 10SM CLR 09/05 A2996 RMK AO2 T00850051
KHHF 250415Z AUTO 00000KT 10SM CLR 09/05 A2996 RMK AO2 T00940053
KHHF 250355Z AUTO 00000KT 10SM CLR 09/05 A2995 RMK AO2 T00930048
KHHF 250335Z AUTO 00000KT 10SM CLR 10/05 A2995 RMK AO2 T00950051
KHHF 250315Z AUTO 00000KT 10SM CLR 12/05 A2995 RMK AO2 T01160054
KHHF 250255Z AUTO 00000KT 10SM CLR 11/05 A2995 RMK AO2 T01130051
KHHF 250235Z AUTO 00000KT 10SM CLR 10/05 A2995 RMK AO2 T01040052
KHHF 250215Z AUTO 22003KT 10SM CLR 11/05 A2995 RMK AO2 T01080051
KHHF 250155Z AUTO 22004KT 10SM CLR 11/05 A2995 RMK AO2 T01120053
KHHF 250135Z AUTO 24004KT 10SM CLR 11/05 A2994 RMK AO2 T01120051
KHHF 250115Z AUTO 00000KT 10SM CLR 14/05 A2992 RMK AO2 T01420050
KHHF 250055Z AUTO 00000KT 10SM CLR 13/05 A2991 RMK AO2 T01300050
KHHF 250035Z AUTO 00000KT 10SM CLR 16/05 A2991 RMK AO2 T01620049
KHHF 250015Z AUTO 00000KT 10SM CLR 19/05 A2989 RMK AO2 T01860050
KHHF 242355Z AUTO 00000KT 10SM CLR 21/05 A2989 RMK AO2 T02050045 10248 20193
KHHF 242335Z AUTO 02005KT 10SM CLR 22/04 A2988 RMK AO2 T02210042
KHHF 242315Z AUTO 01005KT 10SM CLR 23/04 A2988 RMK AO2 T02340042
KHHF 242255Z AUTO 01006KT 10SM CLR 24/04 A2987 RMK AO2 T02400041
KHHF 242235Z AUTO 36007KT 10SM CLR 24/04 A2986 RMK AO2 T02420044
KHHF 242215Z AUTO 33005KT 10SM CLR 25/05 A2985 RMK AO2 T02450052
KHHF 242155Z AUTO 34008KT 10SM CLR 25/06 A2985 RMK AO2 T02470057
KHHF 242135Z AUTO 35009KT 10SM CLR 25/06 A2985 RMK AO2 T02460058
KHHF 242115Z AUTO 33007KT 10SM CLR 25/06 A2984 RMK AO2 T02470064
KHHF 242055Z AUTO 33007KT 300V020 10SM CLR 24/07 A2984 RMK AO2 T02430067
KHHF 242035Z AUTO 33011KT 10SM CLR 24/07 A2984 RMK AO2 T02390067
KHHF 242015Z AUTO 36010G14KT 10SM CLR 24/07 A2983 RMK AO2 T02370072
KHHF 241955Z AUTO 34011G15KT 10SM CLR 23/08 A2983 RMK AO2 T02310080
KHHF 241935Z AUTO 33008G15KT 10SM CLR 23/08 A2983 RMK AO2 T02330082
KHHF 241915Z AUTO 33010G15KT 10SM CLR 22/09 A2984 RMK AO2 T02210086
KHHF 241900Z AUTO 35012G16KT 10SM CLR 22/08 A2984 RMK AO2 T02150084
KHHF 241835Z AUTO 32011G15KT 10SM CLR 21/09 A2984 RMK AO2 T02110086
KHHF 241820Z AUTO 32012G17KT 10SM CLR 20/09 A2984 RMK AO2 T02020086
KHHF 241755Z AUTO 32011G18KT 10SM CLR 20/09 A2985 RMK AO2 T01950088 10195 20120
KHHF 241735Z AUTO 33013G16KT 10SM CLR 19/09 A2985 RMK AO2 T01870088
KHHF 241715Z AUTO 33009KT 10SM CLR 18/09 A2986 RMK AO2 T01790093
KHHF 241700Z AUTO 33013KT 10SM CLR 17/09 A2985 RMK AO2 T01650090
KHHF 241635Z AUTO 31012KT 10SM CLR 16/09 A2985 RMK AO2 T01570089
KHHF 241615Z AUTO 32008KT 10SM CLR 15/09 A2984 RMK AO2 T01520090
KHHF 241555Z AUTO 32011G15KT 10SM CLR 15/09 A2983 RMK AO2 T01470090
KHHF 241535Z AUTO 33013G18KT 10SM CLR 14/09 A2983 RMK AO2 T01420090
KHHF 241515Z AUTO 32010KT 10SM CLR 14/09 A2982 RMK AO2 T01360089
KHHF 241500Z AUTO 31010G14KT 10SM CLR 14/09 A2980 RMK AO2 T01350090
KHHF 241435Z AUTO 31012G15KT 10SM CLR 13/09 A2979 RMK AO2 T01320090
KHHF 241420Z AUTO 31012G17KT 10SM CLR 13/09 A2978 RMK AO2 T01300090
KHHF 241355Z AUTO 30006KT 10SM CLR 12/09 A2977 RMK AO2 T01240088
KHHF 241340Z AUTO 32006KT 10SM CLR 12/09 A2976 RMK AO2 T01220087
KHHF 241315Z AUTO 31007KT 10SM CLR 12/09 A2974 RMK AO2 T01200085
KHHF 241255Z AUTO 33006KT 10SM CLR 12/06 A2973 RMK AO2 T01210060
KHHF 241235Z AUTO 31009KT 10SM CLR 14/03 A2973 RMK AO2 T01420025
KHHF 241215Z AUTO 27007KT 10SM CLR 15/04 A2970 RMK AO2 T01520041
KHHF 241155Z AUTO 25007KT 10SM CLR 17/06 A2969 RMK AO2 T01670060 10233 20167
KHHF 241135Z AUTO 25009KT 10SM CLR 18/07 A2967 RMK AO2 T01800065
KHHF 241115Z AUTO 25009KT 10SM CLR 18/08 A2965 RMK AO2 T01750079
KHHF 241055Z AUTO 27006KT 10SM CLR 19/09 A2964 RMK AO2 T01890094